Time;durP1;ratioP1;P1;durP2;ratioP2;P2;SDS_P1;SDS_P2;PMS_P1;PMS_P2;Temp;Humidity;BMP_temperature;BMP_pressure;BME280_temperature;BME280_humidity;BME280_pressure;Samples;Min_cycle;Max_cycle;Signal;HPM_P1;HPM_P2
2023/05/05 00:01:08;;;;;;;6.95;5.07;;;;;;;;;;5114022;28;20050;-65
2023/05/05 00:03:35;;;;;;;6.05;5.45;;;;;;;;;;5113578;28;20046;-65
2023/05/05 00:06:02;;;;;;;8.55;5.20;;;;;;;;;;5113401;28;20059;-64
2023/05/05 00:08:30;;;;;;;6.60;5.90;;;;;;;;;;5113675;28;20484;-65
2023/05/05 00:10:56;;;;;;;8.50;5.95;;;;;;;;;;5113805;28;20047;-64
2023/05/05 00:13:23;;;;;;;5.90;5.30;;;;;;;;;;5113753;28;20078;-65
2023/05/05 00:15:52;;;;;;;8.18;5.20;;;;;;;;;;5113788;28;20043;-64
2023/05/05 00:18:19;;;;;;;7.45;5.72;;;;;;;;;;5113408;28;20124;-65
2023/05/05 00:20:47;;;;;;;7.22;5.97;;;;;;;;;;5113887;28;20481;-64
2023/05/05 00:23:13;;;;;;;6.43;5.47;;;;;;;;;;5113037;28;20040;-65
2023/05/05 00:25:42;;;;;;;7.55;5.97;;;;;;;;;;5113656;28;20047;-63
2023/05/05 00:28:08;;;;;;;8.05;5.68;;;;;;;;;;5112808;28;20140;-63
2023/05/05 00:30:36;;;;;;;8.43;5.70;;;;;;;;;;5113597;28;20040;-64
2023/05/05 00:33:02;;;;;;;7.57;6.20;;;;;;;;;;5112918;28;20056;-64
2023/05/05 00:35:29;;;;;;;6.93;5.40;;;;;;;;;;5113272;28;20370;-64
2023/05/05 00:37:56;;;;;;;8.50;5.60;;;;;;;;;;5112314;28;20481;-64
2023/05/05 00:40:23;;;;;;;6.43;5.82;;;;;;;;;;5113125;28;20288;-64
2023/05/05 00:42:52;;;;;;;6.32;5.05;;;;;;;;;;5112681;28;20477;-64
2023/05/05 00:45:20;;;;;;;6.97;5.53;;;;;;;;;;5113113;28;20584;-64
2023/05/05 00:47:50;;;;;;;7.88;5.75;;;;;;;;;;5112117;28;20040;-64
2023/05/05 00:50:22;;;;;;;7.82;5.72;;;;;;;;;;5112970;28;20489;-64
2023/05/05 00:52:49;;;;;;;;;;;;;;;;;;5113083;28;20484;-63
2023/05/05 00:55:16;;;;;;;6.05;5.20;;;;;;;;;;5113140;28;19920;-64
2023/05/05 00:57:44;;;;;;;6.82;5.70;;;;;;;;;;5112132;28;20043;-65
2023/05/05 01:00:13;;;;;;;5.90;5.28;;;;;;;;;;5112380;28;20043;-63
2023/05/05 01:02:40;;;;;;;6.80;5.30;;;;;;;;;;5112209;28;20044;-64
2023/05/05 01:05:07;;;;;;;7.60;5.20;;;;;;;;;;5112395;28;20050;-63
2023/05/05 01:07:44;;;;;;;8.30;5.72;;;;;;;;;;5112209;28;20047;-64
2023/05/05 01:10:19;;;;;;;8.50;5.63;;;;;;;;;;5112414;28;20044;-63
2023/05/05 01:12:53;;;;;;;6.95;5.55;;;;;;;;;;5112557;27;20053;-64
2023/05/05 01:15:29;;;;;;;6.85;5.85;;;;;;;;;;5112013;28;20050;-64
2023/05/05 01:18:01;;;;;;;8.02;5.70;;;;;;;;;;5112284;28;20070;-63
2023/05/05 01:20:33;;;;;;;6.25;5.65;;;;;;;;;;5112049;28;20052;-65
2023/05/05 01:23:03;;;;;;;7.17;5.43;;;;;;;;;;5112603;27;20040;-64
2023/05/05 01:25:51;;;;;;;7.95;5.32;;;;;;;;;;5112071;28;20279;-64
2023/05/05 01:28:34;;;;;;;8.18;5.75;;;;;;;;;;5112317;28;20496;-62
2023/05/05 01:31:16;;;;;;;6.70;6.00;;;;;;;;;;5112277;28;20090;-64
2023/05/05 01:33:49;;;;;;;9.18;5.68;;;;;;;;;;5111963;28;20048;-64
2023/05/05 01:36:26;;;;;;;6.68;5.38;;;;;;;;;;5111722;28;20093;-64
2023/05/05 01:38:57;;;;;;;8.13;5.50;;;;;;;;;;5111493;28;20409;-64
2023/05/05 01:41:28;;;;;;;6.57;5.30;;;;;;;;;;5112028;28;20236;-64
2023/05/05 01:43:56;;;;;;;6.20;5.30;;;;;;;;;;5111466;28;20049;-64
2023/05/05 01:46:24;;;;;;;6.53;5.22;;;;;;;;;;5112118;28;20047;-64
2023/05/05 01:48:53;;;;;;;6.82;5.60;;;;;;;;;;5111401;28;20046;-64
2023/05/05 01:51:24;;;;;;;7.22;5.55;;;;;;;;;;5110831;28;20047;-65
2023/05/05 01:53:53;;;;;;;6.60;5.43;;;;;;;;;;5112407;28;20430;-64
2023/05/05 01:56:23;;;;;;;6.00;5.40;;;;;;;;;;5111212;28;20051;-64
2023/05/05 01:58:50;;;;;;;10.63;5.85;;;;;;;;;;5111220;28;20050;-64
2023/05/05 02:01:18;;;;;;;8.52;5.65;;;;;;;;;;5111386;28;20054;-64
2023/05/05 02:03:46;;;;;;;10.00;6.60;;;;;;;;;;5111597;28;20048;-64
2023/05/05 02:06:15;;;;;;;8.07;6.03;;;;;;;;;;5110857;28;20043;-63
2023/05/05 02:08:44;;;;;;;7.55;6.25;;;;;;;;;;5111557;28;20055;-63
2023/05/05 02:11:12;;;;;;;7.15;5.70;;;;;;;;;;5111080;28;20053;-64
2023/05/05 02:13:41;;;;;;;9.57;6.40;;;;;;;;;;5111030;28;20412;-64
2023/05/05 02:16:09;;;;;;;8.15;6.25;;;;;;;;;;5111146;28;20440;-64
2023/05/05 02:18:37;;;;;;;8.52;6.03;;;;;;;;;;5111051;28;20039;-63
2023/05/05 02:21:04;;;;;;;10.30;5.85;;;;;;;;;;5111362;28;20040;-64
2023/05/05 02:23:33;;;;;;;13.10;6.40;;;;;;;;;;5111405;28;20043;-64
2023/05/05 02:26:05;;;;;;;12.25;6.57;;;;;;;;;;5111183;28;20039;-64
2023/05/05 02:28:35;;;;;;;;;;;;;;;;;;5111105;28;20040;-64
2023/05/05 02:31:04;;;;;;;9.73;5.63;;;;;;;;;;5111235;28;19928;-65
2023/05/05 02:33:33;;;;;;;9.55;6.60;;;;;;;;;;5111352;28;20043;-66
2023/05/05 02:36:05;;;;;;;9.38;6.22;;;;;;;;;;5110805;28;20048;-64
2023/05/05 02:38:35;;;;;;;8.35;6.13;;;;;;;;;;5110887;28;20043;-64
2023/05/05 02:41:03;;;;;;;11.18;7.60;;;;;;;;;;5110342;28;20046;-64
2023/05/05 02:43:32;;;;;;;7.97;6.18;;;;;;;;;;5110941;28;20550;-64
2023/05/05 02:45:58;;;;;;;8.18;6.35;;;;;;;;;;5110469;27;20047;-64
2023/05/05 02:48:25;;;;;;;7.85;6.47;;;;;;;;;;5110574;28;20039;-64
2023/05/05 02:50:52;;;;;;;8.90;6.88;;;;;;;;;;5110808;28;20086;-64
2023/05/05 02:53:24;;;;;;;10.95;6.43;;;;;;;;;;5110417;28;20074;-64
2023/05/05 02:55:54;;;;;;;7.40;6.05;;;;;;;;;;5110843;28;20044;-63
2023/05/05 02:58:29;;;;;;;9.68;6.00;;;;;;;;;;5110004;28;20055;-63
2023/05/05 03:01:02;;;;;;;8.80;6.55;;;;;;;;;;5110593;28;20078;-64
2023/05/05 03:03:38;;;;;;;8.48;6.78;;;;;;;;;;5110400;28;20051;-64
2023/05/05 03:06:11;;;;;;;8.32;6.65;;;;;;;;;;5110461;28;20058;-65
2023/05/05 03:08:49;;;;;;;;;;;;;;;;;;5110513;28;20044;-65
2023/05/05 03:11:25;;;;;;;10.02;6.00;;;;;;;;;;5110756;28;19927;-63
2023/05/05 03:13:58;;;;;;;11.57;6.95;;;;;;;;;;5110144;28;20044;-64
2023/05/05 03:16:26;;;;;;;;;;;;;;;;;;5110595;28;20064;-63
2023/05/05 03:18:54;;;;;;;12.85;7.05;;;;;;;;;;5110002;28;20390;-63
2023/05/05 03:21:21;;;;;;;8.68;6.65;;;;;;;;;;5110973;28;20044;-64
2023/05/05 03:23:48;;;;;;;8.80;6.30;;;;;;;;;;5110143;28;20040;-64
2023/05/05 03:26:18;;;;;;;10.45;6.40;;;;;;;;;;5110497;28;20489;-64
2023/05/05 03:28:44;;;;;;;11.95;7.10;;;;;;;;;;5109553;28;20409;-64
2023/05/05 03:31:12;;;;;;;8.07;6.50;;;;;;;;;;5110321;28;20059;-64
2023/05/05 03:33:38;;;;;;;9.35;7.22;;;;;;;;;;5110457;28;20051;-65
2023/05/05 03:36:05;;;;;;;12.52;6.95;;;;;;;;;;5110385;28;20044;-64
2023/05/05 03:38:32;;;;;;;8.07;6.50;;;;;;;;;;5110182;28;20052;-64
2023/05/05 03:41:01;;;;;;;11.55;7.00;;;;;;;;;;5110258;28;20051;-64
2023/05/05 03:43:29;;;;;;;8.68;6.22;;;;;;;;;;5109643;28;20500;-64
2023/05/05 03:45:55;;;;;;;11.05;7.13;;;;;;;;;;5110094;28;20047;-64
2023/05/05 03:48:22;;;;;;;9.70;6.45;;;;;;;;;;5109823;28;20044;-65
2023/05/05 03:50:48;;;;;;;8.30;6.60;;;;;;;;;;5110456;28;20048;-64
2023/05/05 03:53:15;;;;;;;14.38;6.93;;;;;;;;;;5110073;28;20047;-64
2023/05/05 03:55:41;;;;;;;7.93;6.78;;;;;;;;;;5109868;28;20050;-64
2023/05/05 03:58:08;;;;;;;8.35;5.93;;;;;;;;;;5109572;28;20051;-63
2023/05/05 04:00:36;;;;;;;9.23;6.43;;;;;;;;;;5110050;28;20040;-63
2023/05/05 04:03:02;;;;;;;8.57;6.10;;;;;;;;;;5109855;28;20050;-63
2023/05/05 04:05:29;;;;;;;12.70;7.13;;;;;;;;;;5109580;28;20055;-65
2023/05/05 04:07:56;;;;;;;9.25;6.47;;;;;;;;;;5109713;28;20051;-63
2023/05/05 04:10:23;;;;;;;11.65;6.32;;;;;;;;;;5109749;28;20400;-65
2023/05/05 04:12:49;;;;;;;9.60;6.65;;;;;;;;;;5109824;28;20093;-63
2023/05/05 04:15:16;;;;;;;8.50;6.45;;;;;;;;;;5112924;28;20043;-64
2023/05/05 04:17:44;;;;;;;9.90;6.75;;;;;;;;;;5113053;28;20131;-64
2023/05/05 04:20:11;;;;;;;10.25;6.50;;;;;;;;;;5113863;28;20050;-64
2023/05/05 04:22:37;;;;;;;9.38;7.03;;;;;;;;;;5114262;28;20047;-63
2023/05/05 04:25:05;;;;;;;9.75;6.80;;;;;;;;;;5112885;28;20044;-64
2023/05/05 04:27:32;;;;;;;8.95;6.07;;;;;;;;;;5113063;28;20151;-64
2023/05/05 04:29:58;;;;;;;9.40;6.78;;;;;;;;;;5113050;28;20048;-64
2023/05/05 04:32:25;;;;;;;8.85;5.97;;;;;;;;;;5113587;28;20130;-64
2023/05/05 04:34:54;;;;;;;8.38;6.45;;;;;;;;;;5112886;28;20507;-65
2023/05/05 04:37:20;;;;;;;10.82;6.55;;;;;;;;;;5112818;28;20051;-66
2023/05/05 04:39:47;;;;;;;8.98;7.10;;;;;;;;;;5112731;28;20051;-65
2023/05/05 04:42:13;;;;;;;10.32;7.28;;;;;;;;;;5113616;28;20043;-66
2023/05/05 04:44:40;;;;;;;9.27;6.43;;;;;;;;;;5112817;28;20511;-65
2023/05/05 04:47:06;;;;;;;10.15;7.00;;;;;;;;;;5112568;28;20130;-66
2023/05/05 04:49:33;;;;;;;11.57;6.97;;;;;;;;;;5112999;28;20407;-66
2023/05/05 04:52:01;;;;;;;9.75;7.15;;;;;;;;;;5112695;28;20324;-65
2023/05/05 04:54:27;;;;;;;10.32;6.55;;;;;;;;;;5112847;28;20489;-66
2023/05/05 04:56:54;;;;;;;13.02;6.35;;;;;;;;;;5112256;28;20047;-65
2023/05/05 04:59:21;;;;;;;9.60;6.57;;;;;;;;;;5119586;22;20044;-71
2023/05/05 05:01:47;;;;;;;11.18;6.78;;;;;;;;;;5092229;28;20044;-72
2023/05/05 05:04:17;;;;;;;13.60;7.10;;;;;;;;;;5092161;28;20413;-72
2023/05/05 05:06:43;;;;;;;13.30;6.78;;;;;;;;;;5091702;28;20081;-73
2023/05/05 05:09:11;;;;;;;11.77;7.55;;;;;;;;;;5091998;28;20287;-72
2023/05/05 05:11:38;;;;;;;11.73;8.02;;;;;;;;;;5092159;28;20055;-72
2023/05/05 05:14:05;;;;;;;8.90;6.22;;;;;;;;;;5091972;28;20390;-72
2023/05/05 05:16:32;;;;;;;9.90;7.10;;;;;;;;;;5091613;28;20078;-72
2023/05/05 05:18:58;;;;;;;9.88;6.63;;;;;;;;;;5091581;28;20051;-72
2023/05/05 05:21:26;;;;;;;11.90;6.82;;;;;;;;;;5091415;28;20054;-72
2023/05/05 05:23:53;;;;;;;10.73;6.68;;;;;;;;;;5091745;28;20088;-69
2023/05/05 05:26:21;;;;;;;12.77;6.97;;;;;;;;;;5091618;28;20123;-69
2023/05/05 05:28:47;;;;;;;9.20;6.47;;;;;;;;;;5091516;28;20416;-70
2023/05/05 05:31:14;;;;;;;10.48;6.70;;;;;;;;;;5091408;28;20062;-70
2023/05/05 05:33:40;;;;;;;10.95;6.38;;;;;;;;;;5091442;28;20048;-70
2023/05/05 05:36:07;;;;;;;9.93;6.70;;;;;;;;;;5091463;28;20077;-70
2023/05/05 05:38:34;;;;;;;9.20;6.43;;;;;;;;;;5091225;28;20143;-70
2023/05/05 05:41:05;;;;;;;10.10;7.90;;;;;;;;;;5091319;28;20067;-69
2023/05/05 05:43:33;;;;;;;13.85;7.80;;;;;;;;;;5091124;28;20082;-71
2023/05/05 05:45:59;;;;;;;11.30;7.93;;;;;;;;;;5091524;28;20052;-71
2023/05/05 05:48:27;;;;;;;10.75;7.18;;;;;;;;;;5090864;28;20044;-70
2023/05/05 05:50:53;;;;;;;8.70;7.07;;;;;;;;;;5091615;28;20505;-71
2023/05/05 05:53:20;;;;;;;10.57;7.22;;;;;;;;;;5091185;28;20043;-70
2023/05/05 05:55:47;;;;;;;11.70;7.43;;;;;;;;;;5091263;28;20046;-69
2023/05/05 05:58:15;;;;;;;14.50;7.82;;;;;;;;;;5090563;28;20040;-70
2023/05/05 06:00:43;;;;;;;9.63;7.22;;;;;;;;;;5090947;28;20051;-71
2023/05/05 06:03:09;;;;;;;11.80;8.77;;;;;;;;;;5090751;28;20055;-70
2023/05/05 06:05:36;;;;;;;10.65;8.13;;;;;;;;;;5091154;28;20048;-70
2023/05/05 06:08:03;;;;;;;9.40;7.90;;;;;;;;;;5090567;28;20070;-70
2023/05/05 06:10:29;;;;;;;11.20;8.25;;;;;;;;;;5091278;28;20510;-69
2023/05/05 06:12:56;;;;;;;13.95;8.18;;;;;;;;;;5090453;28;20482;-70
2023/05/05 06:15:22;;;;;;;9.63;7.82;;;;;;;;;;5090664;28;20115;-70
2023/05/05 06:17:50;;;;;;;10.88;7.55;;;;;;;;;;5089936;28;20040;-70
2023/05/05 06:20:17;;;;;;;10.75;7.78;;;;;;;;;;5090776;28;20046;-69
2023/05/05 06:22:44;;;;;;;13.68;8.70;;;;;;;;;;5090278;28;20048;-70
2023/05/05 06:25:10;;;;;;;11.05;8.57;;;;;;;;;;5090913;28;20542;-70
2023/05/05 06:27:37;;;;;;;13.32;7.80;;;;;;;;;;5090154;28;20048;-69
2023/05/05 06:30:05;;;;;;;10.45;7.53;;;;;;;;;;5089996;28;20054;-70
2023/05/05 06:32:32;;;;;;;11.10;7.57;;;;;;;;;;5090812;28;20054;-70
2023/05/05 06:34:59;;;;;;;10.65;7.68;;;;;;;;;;5090226;28;20040;-69
2023/05/05 06:37:26;;;;;;;12.57;6.93;;;;;;;;;;5089910;28;20048;-70
2023/05/05 06:39:52;;;;;;;9.80;7.28;;;;;;;;;;5090116;28;20054;-70
2023/05/05 06:42:19;;;;;;;11.10;7.20;;;;;;;;;;5090421;28;20048;-67
2023/05/05 06:44:46;;;;;;;9.27;6.60;;;;;;;;;;5078584;28;20071;-67
2023/05/05 06:47:12;;;;;;;8.75;6.15;;;;;;;;;;5071522;28;20044;-68
2023/05/05 06:49:39;;;;;;;8.25;6.28;;;;;;;;;;5069602;28;20078;-70
2023/05/05 06:52:07;;;;;;;9.55;6.22;;;;;;;;;;5070304;28;20437;-72
2023/05/05 06:54:33;;;;;;;10.85;5.78;;;;;;;;;;5070090;28;20049;-71
2023/05/05 06:57:00;;;;;;;9.57;6.53;;;;;;;;;;5069428;28;20055;-70
2023/05/05 06:59:27;;;;;;;11.30;5.93;;;;;;;;;;5069750;28;20055;-70
2023/05/05 07:01:53;;;;;;;7.38;5.85;;;;;;;;;;5070065;28;20045;-72
2023/05/05 07:04:20;;;;;;;8.40;5.13;;;;;;;;;;5072367;28;20052;-71
2023/05/05 07:06:46;;;;;;;8.35;6.30;;;;;;;;;;5086741;28;20130;-70
2023/05/05 07:09:15;;;;;;;8.88;6.50;;;;;;;;;;5089956;28;20080;-69
2023/05/05 07:11:41;;;;;;;7.85;5.30;;;;;;;;;;5089849;28;20048;-70
2023/05/05 07:14:08;;;;;;;10.13;5.25;;;;;;;;;;5086229;28;20051;-71
2023/05/05 07:16:35;;;;;;;7.28;6.03;;;;;;;;;;5069818;28;20045;-70
2023/05/05 07:19:04;;;;;;;11.15;5.45;;;;;;;;;;5069612;28;20067;-71
2023/05/05 07:21:31;;;;;;;8.98;5.03;;;;;;;;;;5069375;28;20044;-71
2023/05/05 07:23:57;;;;;;;16.58;6.00;;;;;;;;;;5068899;28;20106;-70
2023/05/05 07:26:25;;;;;;;12.38;5.32;;;;;;;;;;5068499;28;20046;-69
2023/05/05 07:28:53;;;;;;;8.00;5.50;;;;;;;;;;5068953;28;20080;-70
2023/05/05 07:31:20;;;;;;;10.88;5.13;;;;;;;;;;5069175;28;20049;-69
2023/05/05 07:33:48;;;;;;;10.45;5.70;;;;;;;;;;5069153;28;20072;-69
2023/05/05 07:36:15;;;;;;;10.07;5.03;;;;;;;;;;5072652;28;20512;-69
2023/05/05 07:38:41;;;;;;;9.13;5.10;;;;;;;;;;5089461;28;20044;-68
2023/05/05 07:41:10;;;;;;;8.25;4.65;;;;;;;;;;5089153;28;20048;-70
2023/05/05 07:43:39;;;;;;;8.80;4.70;;;;;;;;;;5089466;28;20048;-70
2023/05/05 07:46:06;;;;;;;7.50;4.38;;;;;;;;;;5089433;28;20054;-71
2023/05/05 07:48:33;;;;;;;6.93;4.18;;;;;;;;;;5090008;28;20489;-71
2023/05/05 07:50:59;;;;;;;8.65;4.20;;;;;;;;;;5092947;28;20071;-74
2023/05/05 07:53:26;;;;;;;7.85;3.78;;;;;;;;;;5092816;28;20044;-71
2023/05/05 07:55:52;;;;;;;8.40;3.67;;;;;;;;;;5093300;28;20044;-73
2023/05/05 07:58:19;;;;;;;10.55;3.88;;;;;;;;;;5089898;28;20044;-70
2023/05/05 08:00:49;;;;;;;5.03;3.17;;;;;;;;;;5093353;28;20048;-72
2023/05/05 08:03:15;;;;;;;4.75;3.25;;;;;;;;;;5082959;28;20191;-69
2023/05/05 08:05:42;;;;;;;5.97;3.67;;;;;;;;;;5072562;28;20639;-69
2023/05/05 08:08:09;;;;;;;3.92;3.28;;;;;;;;;;5071560;28;20041;-69
2023/05/05 08:10:36;;;;;;;5.30;3.50;;;;;;;;;;5074847;28;20054;-69
2023/05/05 08:13:02;;;;;;;4.32;3.50;;;;;;;;;;5077688;28;20131;-69
2023/05/05 08:15:29;;;;;;;4.13;3.00;;;;;;;;;;5077257;28;20421;-69
2023/05/05 08:17:57;;;;;;;4.95;2.83;;;;;;;;;;5082822;28;20406;-69
2023/05/05 08:20:28;;;;;;;4.15;2.67;;;;;;;;;;5090695;28;20070;-69
2023/05/05 08:22:54;;;;;;;3.15;2.40;;;;;;;;;;5081161;28;20036;-69
2023/05/05 08:25:21;;;;;;;4.35;2.65;;;;;;;;;;5080004;28;20048;-69
2023/05/05 08:27:48;;;;;;;5.60;3.00;;;;;;;;;;5070986;28;20504;-69
2023/05/05 08:30:16;;;;;;;4.35;2.65;;;;;;;;;;5091949;28;20036;-69
2023/05/05 08:32:42;;;;;;;3.08;2.58;;;;;;;;;;5092071;28;20261;-69
2023/05/05 08:35:10;;;;;;;3.75;2.47;;;;;;;;;;5085439;28;20033;-69
2023/05/05 08:37:37;;;;;;;4.78;2.47;;;;;;;;;;5081588;28;20391;-71
2023/05/05 08:40:06;;;;;;;4.07;2.20;;;;;;;;;;5083117;28;20047;-68
2023/05/05 08:42:33;;;;;;;5.25;2.55;;;;;;;;;;5092371;28;20044;-69
2023/05/05 08:45:00;;;;;;;3.80;2.40;;;;;;;;;;5091054;28;20131;-69
2023/05/05 08:47:27;;;;;;;3.55;2.42;;;;;;;;;;5090287;28;20249;-69
2023/05/05 08:49:55;;;;;;;3.85;2.40;;;;;;;;;;5087534;28;20081;-69
2023/05/05 08:52:24;;;;;;;4.00;2.38;;;;;;;;;;5081994;28;20040;-69
2023/05/05 08:54:55;;;;;;;2.60;2.20;;;;;;;;;;5080960;28;20052;-69
2023/05/05 08:57:32;;;;;;;3.00;2.15;;;;;;;;;;5090371;28;20140;-70
2023/05/05 09:00:00;;;;;;;3.55;2.10;;;;;;;;;;5089154;28;20362;-69
2023/05/05 09:02:28;;;;;;;4.07;2.03;;;;;;;;;;5091865;28;20113;-69
2023/05/05 09:04:55;;;;;;;3.55;2.05;;;;;;;;;;5091309;28;20463;-68
2023/05/05 09:07:24;;;;;;;6.10;2.10;;;;;;;;;;5090886;28;20055;-69
2023/05/05 09:09:51;;;;;;;2.78;1.95;;;;;;;;;;5091182;28;20048;-69
2023/05/05 09:12:18;;;;;;;3.63;2.10;;;;;;;;;;5091115;28;20401;-69
2023/05/05 09:14:46;;;;;;;5.45;2.08;;;;;;;;;;5087425;28;20044;-69
2023/05/05 09:17:23;;;;;;;2.58;1.88;;;;;;;;;;5068248;28;20044;-69
2023/05/05 09:20:02;;;;;;;7.60;4.15;;;;;;;;;;5069899;28;20059;-70
2023/05/05 09:22:40;;;;;;;3.22;1.80;;;;;;;;;;5074385;28;20052;-73
2023/05/05 09:25:09;;;;;;;3.20;1.80;;;;;;;;;;5085722;28;20048;-71
2023/05/05 09:27:37;;;;;;;3.42;1.88;;;;;;;;;;5083648;28;20137;-70
2023/05/05 09:30:05;;;;;;;2.83;1.80;;;;;;;;;;5073008;28;20048;-69
2023/05/05 09:32:43;;;;;;;1.73;1.50;;;;;;;;;;5078724;28;20147;-69
2023/05/05 09:35:09;;;;;;;2.67;1.27;;;;;;;;;;5075712;28;20036;-69
2023/05/05 09:37:37;;;;;;;2.25;1.42;;;;;;;;;;5081568;28;20474;-69
2023/05/05 09:40:08;;;;;;;3.63;1.55;;;;;;;;;;5078262;28;20480;-69
2023/05/05 09:42:35;;;;;;;1.80;1.30;;;;;;;;;;5070789;28;20454;-69
2023/05/05 09:45:02;;;;;;;1.27;1.00;;;;;;;;;;5070973;28;20052;-69
2023/05/05 09:47:34;;;;;;;2.60;1.42;;;;;;;;;;5070050;28;20135;-69
2023/05/05 09:50:01;;;;;;;1.88;0.90;;;;;;;;;;5070560;28;20051;-69
2023/05/05 09:52:27;;;;;;;3.13;0.70;;;;;;;;;;5082022;28;20048;-69
2023/05/05 09:54:55;;;;;;;2.03;1.20;;;;;;;;;;5071942;28;20044;-70
2023/05/05 09:57:28;;;;;;;2.33;0.73;;;;;;;;;;5089748;28;20482;-72
2023/05/05 09:59:56;;;;;;;1.52;0.98;;;;;;;;;;5089923;28;20402;-72
2023/05/05 10:02:30;;;;;;;1.30;0.85;;;;;;;;;;5090873;28;20040;-71
2023/05/05 10:05:05;;;;;;;1.08;0.77;;;;;;;;;;5090690;28;20044;-71
2023/05/05 10:07:31;;;;;;;2.33;0.93;;;;;;;;;;5090936;28;20109;-72
2023/05/05 10:09:58;;;;;;;1.40;0.90;;;;;;;;;;5090897;28;20136;-71
2023/05/05 10:12:27;;;;;;;2.88;0.90;;;;;;;;;;5090241;28;20051;-71
2023/05/05 10:14:56;;;;;;;1.30;0.88;;;;;;;;;;5090604;28;20048;-72
2023/05/05 10:17:23;;;;;;;3.03;1.00;;;;;;;;;;5090591;28;20052;-72
2023/05/05 10:19:52;;;;;;;1.55;1.00;;;;;;;;;;5090793;28;20050;-72
2023/05/05 10:22:22;;;;;;;3.20;0.80;;;;;;;;;;5090421;28;20112;-71
2023/05/05 10:24:53;;;;;;;2.28;0.90;;;;;;;;;;5089665;28;20054;-72
2023/05/05 10:27:23;;;;;;;2.40;1.20;;;;;;;;;;5090391;28;20044;-72
2023/05/05 10:29:57;;;;;;;4.22;1.20;;;;;;;;;;5090613;28;20056;-72
2023/05/05 10:32:27;;;;;;;2.60;1.15;;;;;;;;;;5090360;28;20040;-72
2023/05/05 10:34:59;;;;;;;2.38;1.20;;;;;;;;;;5090425;28;20048;-72
2023/05/05 10:37:27;;;;;;;4.18;1.20;;;;;;;;;;5089651;28;20044;-71
2023/05/05 10:39:54;;;;;;;3.22;1.20;;;;;;;;;;5090799;28;20040;-72
2023/05/05 10:42:22;;;;;;;3.30;1.27;;;;;;;;;;5090020;28;20515;-72
2023/05/05 10:44:49;;;;;;;2.83;1.27;;;;;;;;;;5089276;28;20043;-71
2023/05/05 10:47:18;;;;;;;4.30;1.30;;;;;;;;;;5089746;28;20050;-71
2023/05/05 10:49:50;;;;;;;2.65;1.10;;;;;;;;;;5090086;28;20504;-72
2023/05/05 10:52:22;;;;;;;3.38;1.20;;;;;;;;;;5090282;28;20458;-71
2023/05/05 10:54:56;;;;;;;1.92;1.27;;;;;;;;;;5089972;28;20298;-72
2023/05/05 10:57:25;;;;;;;2.10;1.13;;;;;;;;;;5090426;28;20054;-72
2023/05/05 10:59:51;;;;;;;2.30;0.90;;;;;;;;;;5101863;22;20044;-67
2023/05/05 11:02:24;;;;;;;3.67;1.00;;;;;;;;;;5090306;28;20044;-67
2023/05/05 11:05:13;;;;;;;1.83;1.00;;;;;;;;;;5089760;28;20055;-67
2023/05/05 11:07:41;;;;;;;1.95;1.00;;;;;;;;;;5090097;28;20451;-68
2023/05/05 11:10:09;;;;;;;1.65;0.80;;;;;;;;;;5089978;28;20055;-67
2023/05/05 11:13:08;;;;;;;1.33;1.10;;;;;;;;;;5090403;28;20048;-68
2023/05/05 11:15:37;;;;;;;1.95;0.90;;;;;;;;;;5089395;28;20055;-68
2023/05/05 11:18:06;;;;;;;2.58;0.85;;;;;;;;;;5090218;28;20063;-67
2023/05/05 11:21:03;;;;;;;1.40;0.70;;;;;;;;;;5089983;28;20123;-67
2023/05/05 11:23:30;;;;;;;2.05;0.70;;;;;;;;;;5092405;28;20044;-67
2023/05/05 11:25:57;;;;;;;1.13;0.68;;;;;;;;;;5094023;28;20481;-67
2023/05/05 11:28:28;;;;;;;1.58;0.95;;;;;;;;;;5093840;28;20422;-67
2023/05/05 11:31:19;;;;;;;2.25;0.88;;;;;;;;;;5094065;28;20044;-68
2023/05/05 11:33:47;;;;;;;4.18;1.10;;;;;;;;;;5094323;28;20054;-67
2023/05/05 11:36:15;;;;;;;2.22;0.90;;;;;;;;;;5093280;28;20048;-67
2023/05/05 11:39:07;;;;;;;1.38;0.90;;;;;;;;;;5093728;28;20486;-67
2023/05/05 11:42:00;;;;;;;1.38;0.90;;;;;;;;;;5093915;28;20420;-68
2023/05/05 11:44:31;;;;;;;2.58;0.90;;;;;;;;;;5070508;28;20102;-67
2023/05/05 11:47:26;;;;;;;1.73;0.90;;;;;;;;;;5093108;28;20051;-68
2023/05/05 11:49:55;;;;;;;0.90;0.70;;;;;;;;;;5086440;28;20048;-67
2023/05/05 11:52:24;;;;;;;0.63;0.60;;;;;;;;;;5093621;28;20050;-67
2023/05/05 11:54:51;;;;;;;2.88;1.00;;;;;;;;;;5093280;28;20087;-67
2023/05/05 11:57:20;;;;;;;0.95;0.73;;;;;;;;;;5092756;28;20051;-67
2023/05/05 11:59:52;;;;;;;4.25;0.90;;;;;;;;;;5093410;28;20044;-67
2023/05/05 12:02:19;;;;;;;;;;;;;;;;;;5093906;28;20113;-68
2023/05/05 12:04:46;;;;;;;1.70;0.80;;;;;;;;;;5093334;28;20487;-67
2023/05/05 12:07:18;;;;;;;1.23;0.68;;;;;;;;;;5092679;28;20254;-67
2023/05/05 12:09:46;;;;;;;2.22;0.80;;;;;;;;;;5091876;28;20063;-68
2023/05/05 12:12:14;;;;;;;4.68;0.70;;;;;;;;;;5093326;28;20135;-67
2023/05/05 12:14:51;;;;;;;1.55;0.73;;;;;;;;;;5093194;28;20044;-68
2023/05/05 12:17:19;;;;;;;1.23;0.70;;;;;;;;;;5091546;28;20476;-68
2023/05/05 12:19:47;;;;;;;0.85;0.70;;;;;;;;;;5093429;28;20044;-67
2023/05/05 12:22:20;;;;;;;2.15;0.80;;;;;;;;;;5075913;28;20140;-67
2023/05/05 12:24:57;;;;;;;1.90;0.80;;;;;;;;;;5072262;28;20442;-68
2023/05/05 12:27:25;;;;;;;1.40;0.80;;;;;;;;;;5092257;28;20062;-67
2023/05/05 12:29:53;;;;;;;2.05;1.10;;;;;;;;;;5092717;28;20126;-67
2023/05/05 12:32:24;;;;;;;2.20;0.93;;;;;;;;;;5092267;28;20091;-67
2023/05/05 12:34:56;;;;;;;2.42;0.90;;;;;;;;;;5091948;28;20467;-67
2023/05/05 12:37:25;;;;;;;2.95;0.88;;;;;;;;;;5091774;28;20080;-67
2023/05/05 12:39:54;;;;;;;2.95;0.90;;;;;;;;;;5092706;28;20123;-69
2023/05/05 12:42:21;;;;;;;2.78;0.80;;;;;;;;;;5078521;28;20490;-69
2023/05/05 12:44:48;;;;;;;5.40;1.00;;;;;;;;;;5072067;28;20566;-69
2023/05/05 12:47:28;;;;;;;2.75;0.88;;;;;;;;;;5089835;28;20052;-69
2023/05/05 12:49:55;;;;;;;1.95;0.70;;;;;;;;;;5092524;28;20386;-68
2023/05/05 12:52:21;;;;;;;1.33;0.73;;;;;;;;;;5086270;28;20481;-68
2023/05/05 12:54:53;;;;;;;1.92;0.90;;;;;;;;;;5078202;28;20048;-67
2023/05/05 12:57:20;;;;;;;3.85;1.00;;;;;;;;;;5071657;28;20383;-69
2023/05/05 12:59:47;;;;;;;3.00;0.80;;;;;;;;;;5071354;28;20494;-68
2023/05/05 13:02:14;;;;;;;2.15;0.93;;;;;;;;;;5072061;28;20045;-67
2023/05/05 13:04:48;;;;;;;1.30;0.70;;;;;;;;;;5071829;28;20421;-68
2023/05/05 13:07:19;;;;;;;2.58;0.90;;;;;;;;;;5071396;28;20489;-69
2023/05/05 13:09:47;;;;;;;2.08;0.90;;;;;;;;;;5071788;28;20051;-68
2023/05/05 13:12:17;;;;;;;1.88;0.70;;;;;;;;;;5080279;28;20119;-68
2023/05/05 13:14:43;;;;;;;2.72;0.90;;;;;;;;;;5091428;28;20048;-69
2023/05/05 13:17:10;;;;;;;2.28;0.98;;;;;;;;;;5091771;28;20047;-69
2023/05/05 13:19:41;;;;;;;1.55;0.88;;;;;;;;;;5091517;28;20047;-68
2023/05/05 13:22:09;;;;;;;1.70;0.90;;;;;;;;;;5092044;28;20052;-68
2023/05/05 13:24:39;;;;;;;1.83;0.80;;;;;;;;;;5091368;28;20086;-69
2023/05/05 13:27:06;;;;;;;2.22;0.80;;;;;;;;;;5090687;28;20047;-69
2023/05/05 13:29:33;;;;;;;3.65;1.25;;;;;;;;;;5091904;28;20074;-68
2023/05/05 13:32:00;;;;;;;2.60;1.10;;;;;;;;;;5091685;28;20489;-68
2023/05/05 13:34:27;;;;;;;4.43;1.42;;;;;;;;;;5092106;28;20044;-68
2023/05/05 13:36:53;;;;;;;1.67;1.02;;;;;;;;;;5091005;28;20572;-69
2023/05/05 13:39:20;;;;;;;2.33;1.05;;;;;;;;;;5091855;28;20135;-69
2023/05/05 13:41:46;;;;;;;2.22;0.93;;;;;;;;;;5091372;28;20409;-68
2023/05/05 13:44:13;;;;;;;1.88;0.90;;;;;;;;;;5091258;28;20040;-69
2023/05/05 13:46:42;;;;;;;2.13;1.33;;;;;;;;;;5091215;28;20048;-69
2023/05/05 13:49:08;;;;;;;4.40;0.90;;;;;;;;;;5091540;28;20052;-68
2023/05/05 13:51:35;;;;;;;2.97;0.95;;;;;;;;;;5091078;28;20052;-68
2023/05/05 13:54:02;;;;;;;1.85;0.80;;;;;;;;;;5091558;28;20051;-69
2023/05/05 13:56:29;;;;;;;1.58;0.55;;;;;;;;;;5091084;28;20130;-68
2023/05/05 13:58:56;;;;;;;2.35;0.65;;;;;;;;;;5090964;28;20070;-69
2023/05/05 14:01:22;;;;;;;2.78;0.82;;;;;;;;;;5090991;28;20044;-68
2023/05/05 14:03:50;;;;;;;2.10;0.70;;;;;;;;;;5090949;28;20051;-68
2023/05/05 14:06:17;;;;;;;2.17;0.68;;;;;;;;;;5090661;28;20044;-68
2023/05/05 14:08:44;;;;;;;3.03;1.02;;;;;;;;;;5090782;28;20051;-68
2023/05/05 14:11:12;;;;;;;3.50;0.85;;;;;;;;;;5090962;28;20218;-68
2023/05/05 14:13:43;;;;;;;1.50;0.95;;;;;;;;;;5091440;28;20251;-68
2023/05/05 14:16:10;;;;;;;2.83;1.00;;;;;;;;;;5091007;28;20067;-68
2023/05/05 14:18:36;;;;;;;1.02;0.80;;;;;;;;;;5090703;28;20126;-68
2023/05/05 14:21:04;;;;;;;2.83;1.00;;;;;;;;;;5091123;28;20047;-68
2023/05/05 14:23:31;;;;;;;2.08;0.90;;;;;;;;;;5091167;28;20049;-68
2023/05/05 14:25:57;;;;;;;2.80;0.90;;;;;;;;;;5091151;28;20072;-69
2023/05/05 14:28:24;;;;;;;3.40;1.20;;;;;;;;;;5090972;28;20052;-67
2023/05/05 14:30:51;;;;;;;3.40;1.17;;;;;;;;;;5091581;28;20516;-68
2023/05/05 14:33:17;;;;;;;3.08;1.38;;;;;;;;;;5091167;28;20050;-69
2023/05/05 14:35:44;;;;;;;3.83;1.45;;;;;;;;;;5091210;28;20134;-68
2023/05/05 14:38:13;;;;;;;4.22;1.52;;;;;;;;;;5089884;28;20406;-69
2023/05/05 14:40:39;;;;;;;2.60;1.33;;;;;;;;;;5090645;28;20429;-69
2023/05/05 14:43:06;;;;;;;3.47;1.30;;;;;;;;;;5090125;28;20140;-68
2023/05/05 14:45:36;;;;;;;8.73;1.50;;;;;;;;;;5090608;28;20044;-68
2023/05/05 14:48:02;;;;;;;3.35;1.70;;;;;;;;;;5090562;28;20056;-68
2023/05/05 14:50:29;;;;;;;3.58;1.52;;;;;;;;;;5090679;28;20076;-68
2023/05/05 14:52:56;;;;;;;3.25;1.27;;;;;;;;;;5090728;28;20131;-69